createdAt,value
2022-10-07T00:00:52.623Z,102345.75
2022-10-07T00:03:22.347Z,102342.66
2022-10-07T00:06:03.373Z,102344.75
2022-10-07T00:08:31.076Z,102354.97
2022-10-07T00:10:58.023Z,102349.53
2022-10-07T00:13:25.456Z,102345.38
2022-10-07T00:15:52.398Z,102342.44
2022-10-07T00:18:19.342Z,102344.13
2022-10-07T00:20:46.051Z,102343.69
2022-10-07T00:23:12.849Z,102339.94
2022-10-07T00:25:39.775Z,102339.13
2022-10-07T00:28:06.808Z,102331.00
2022-10-07T00:30:33.731Z,102323.03
2022-10-07T00:33:00.764Z,102319.06
2022-10-07T00:35:28.550Z,102314.03
2022-10-07T00:37:54.976Z,102312.38
2022-10-07T00:40:21.489Z,102312.59
2022-10-07T00:42:47.963Z,102306.13
2022-10-07T00:45:17.693Z,102309.28
2022-10-07T00:47:47.183Z,102299.50
2022-10-07T00:50:29.435Z,102300.31
2022-10-07T00:52:59.617Z,102296.19
2022-10-07T00:55:29.790Z,102293.31
2022-10-07T00:58:01.351Z,102288.75
2022-10-07T01:00:28.278Z,102278.56
2022-10-07T01:02:54.838Z,102277.38
2022-10-07T01:05:21.519Z,102280.72
2022-10-07T01:07:50.585Z,102282.81
2022-10-07T01:10:20.155Z,102275.34
2022-10-07T01:13:09.081Z,102276.81
2022-10-07T01:15:42.038Z,102272.91
2022-10-07T01:18:16.858Z,102276.22
2022-10-07T01:20:49.397Z,102268.06
2022-10-07T01:23:40.773Z,102269.50
2022-10-07T01:26:27.340Z,102264.91
2022-10-07T01:29:11.081Z,102262.63
2022-10-07T01:31:48.803Z,102263.06
2022-10-07T01:34:17.173Z,102262.91
2022-10-07T01:36:50.924Z,102253.81
2022-10-07T01:39:24.277Z,102251.97
2022-10-07T01:41:51.367Z,102247.00
2022-10-07T01:44:17.957Z,102241.56
2022-10-07T01:46:44.730Z,102240.16
2022-10-07T01:49:11.795Z,102234.75
2022-10-07T01:51:55.369Z,102234.13
2022-10-07T01:54:33.629Z,102230.78
2022-10-07T01:57:18.496Z,102236.66
2022-10-07T02:00:06.910Z,102237.53
2022-10-07T02:03:18.425Z,102230.47
2022-10-07T02:05:58.409Z,102230.06
2022-10-07T02:08:39.876Z,102230.47
2022-10-07T02:11:25.768Z,102225.06
2022-10-07T02:14:20.129Z,102216.72
2022-10-07T02:17:10.099Z,102210.28
2022-10-07T02:19:41.335Z,102200.34
2022-10-07T02:22:10.362Z,102210.75
2022-10-07T02:24:38.931Z,102203.66
2022-10-07T02:27:12.233Z,102202.63
2022-10-07T02:29:42.972Z,102202.25
2022-10-07T02:32:19.613Z,102198.50
2022-10-07T02:34:54.732Z,102202.88
2022-10-07T02:37:30.471Z,102190.63
2022-10-07T02:39:57.980Z,102185.50
2022-10-07T02:42:33.625Z,102190.63
2022-10-07T02:45:09.212Z,102187.94
2022-10-07T02:47:45.587Z,102177.41
2022-10-07T02:50:17.519Z,102178.25
2022-10-07T02:52:45.393Z,102182.41
2022-10-07T02:55:16.400Z,102180.75
2022-10-07T02:57:50.137Z,102177.03
2022-10-07T03:00:18.897Z,102173.72
2022-10-07T03:02:54.195Z,102175.41
2022-10-07T03:05:26.034Z,102162.72
2022-10-07T03:08:02.477Z,102173.09
2022-10-07T03:10:31.354Z,102157.53
2022-10-07T03:12:58.009Z,102166.47
2022-10-07T03:15:25.938Z,102162.94
2022-10-07T03:17:53.671Z,102168.34
2022-10-07T03:20:20.159Z,102166.25
2022-10-07T03:22:46.820Z,102160.03
2022-10-07T03:25:17.110Z,102154.25
2022-10-07T03:27:43.964Z,102156.75
2022-10-07T03:30:11.605Z,102154.06
2022-10-07T03:32:40.691Z,102161.56
2022-10-07T03:35:09.049Z,102149.50
2022-10-07T03:37:36.367Z,102148.50
2022-10-07T03:40:05.495Z,102145.38
2022-10-07T03:42:32.297Z,102147.63
2022-10-07T03:44:59.370Z,102136.41
2022-10-07T03:47:27.401Z,102138.09
2022-10-07T03:49:54.710Z,102136.63
2022-10-07T03:52:21.243Z,102134.78
2022-10-07T03:54:47.851Z,102130.81
2022-10-07T03:57:32.987Z,102122.09
2022-10-07T04:00:00.513Z,102126.69
2022-10-07T04:02:27.878Z,102120.44
2022-10-07T04:04:55.427Z,102113.19
2022-10-07T04:07:23.418Z,102112.31
2022-10-07T04:09:51.291Z,102111.50
2022-10-07T04:12:17.778Z,102111.94
2022-10-07T04:14:44.928Z,102107.81
2022-10-07T04:17:11.385Z,102102.38
2022-10-07T04:19:37.998Z,102099.91
2022-10-07T04:22:08.956Z,102104.69
2022-10-07T04:24:37.133Z,102102.19
2022-10-07T04:27:07.484Z,102101.34
2022-10-07T04:29:39.033Z,102104.88
2022-10-07T04:32:06.468Z,102102.19
2022-10-07T04:34:33.495Z,102100.31
2022-10-07T04:37:01.087Z,102102.59
2022-10-07T04:39:48.891Z,102097.41
2022-10-07T04:42:34.520Z,102092.00
2022-10-07T04:45:00.994Z,102087.03
2022-10-07T04:47:28.826Z,102093.25
2022-10-07T04:49:55.725Z,102086.00
2022-10-07T04:52:22.401Z,102093.88
2022-10-07T04:54:49.137Z,102090.72
2022-10-07T04:57:15.740Z,102082.84
2022-10-07T04:59:43.652Z,102078.72
2022-10-07T05:02:14.336Z,102082.47
2022-10-07T05:04:44.135Z,102073.50
2022-10-07T05:07:11.151Z,102082.25
2022-10-07T05:09:38.459Z,102083.09
2022-10-07T05:12:06.191Z,102083.69
2022-10-07T05:14:33.712Z,102073.94
2022-10-07T05:17:01.286Z,102077.06
2022-10-07T05:19:32.190Z,102078.28
2022-10-07T05:21:59.283Z,102079.13
2022-10-07T05:24:26.789Z,102076.00
2022-10-07T05:26:54.373Z,102075.63
2022-10-07T05:29:21.384Z,102073.34
2022-10-07T05:31:51.274Z,102075.41
2022-10-07T05:34:21.452Z,102077.91
2022-10-07T05:36:48.007Z,102076.44
2022-10-07T05:39:14.599Z,102071.06
2022-10-07T05:41:49.046Z,102071.44
2022-10-07T05:44:18.908Z,102066.66
2022-10-07T05:46:47.508Z,102063.53
2022-10-07T05:49:15.703Z,102060.84
2022-10-07T05:51:42.423Z,102056.28
2022-10-07T05:54:09.387Z,102066.22
2022-10-07T05:56:40.115Z,102057.50
2022-10-07T05:59:10.505Z,102059.13
2022-10-07T06:01:42.827Z,102048.28
2022-10-07T06:04:14.079Z,102044.88
2022-10-07T06:06:43.981Z,102048.00
2022-10-07T06:09:30.883Z,102045.69
2022-10-07T06:12:18.741Z,102047.13
2022-10-07T06:14:46.856Z,102046.91
2022-10-07T06:17:13.382Z,102043.81
2022-10-07T06:19:41.653Z,102043.59
2022-10-07T06:22:09.129Z,102040.69
2022-10-07T06:24:37.435Z,102046.66
2022-10-07T06:27:05.496Z,102041.41
2022-10-07T06:29:32.126Z,102050.13
2022-10-07T06:31:59.686Z,102045.97
2022-10-07T06:34:27.014Z,102048.41
2022-10-07T06:36:55.553Z,102034.03
2022-10-07T06:39:22.712Z,102044.97
2022-10-07T06:41:52.925Z,102039.50
2022-10-07T06:44:28.299Z,102036.97
2022-10-07T06:46:55.808Z,102048.59
2022-10-07T06:49:22.594Z,102043.72
2022-10-07T06:51:50.770Z,102033.91
2022-10-07T06:54:17.298Z,102048.59
2022-10-07T06:56:44.427Z,102042.88
2022-10-07T06:59:10.924Z,102043.66
2022-10-07T07:01:51.865Z,102045.03
2022-10-07T07:04:18.664Z,102041.66
2022-10-07T07:06:46.268Z,102050.16
2022-10-07T07:09:12.782Z,102046.69
2022-10-07T07:11:43.479Z,102048.25
2022-10-07T07:14:19.986Z,102053.59
2022-10-07T07:16:57.266Z,102050.00
2022-10-07T07:19:25.888Z,102042.38
2022-10-07T07:21:53.963Z,102043.97
2022-10-07T07:24:22.964Z,102045.28
2022-10-07T07:26:49.434Z,102034.97
2022-10-07T07:29:16.580Z,102037.78
2022-10-07T07:31:49.787Z,102032.50
2022-10-07T07:34:17.291Z,102036.50
2022-10-07T07:36:48.224Z,102037.63
2022-10-07T07:39:17.584Z,102037.88
2022-10-07T07:41:50.774Z,102037.09
2022-10-07T07:44:20.391Z,102021.31
2022-10-07T07:46:51.284Z,102028.41
2022-10-07T07:49:20.900Z,102032.38
2022-10-07T07:51:47.715Z,102027.91
2022-10-07T07:54:24.900Z,102027.41
2022-10-07T07:56:51.415Z,102032.97
2022-10-07T07:59:20.054Z,102025.78
2022-10-07T08:01:49.033Z,102025.66
2022-10-07T08:04:16.649Z,102023.25
2022-10-07T08:06:43.484Z,102024.28
2022-10-07T08:09:10.179Z,102021.78
2022-10-07T08:11:37.800Z,102022.78
2022-10-07T08:14:04.601Z,102022.66
2022-10-07T08:16:34.518Z,102010.69
2022-10-07T08:19:01.153Z,102007.44
2022-10-07T08:21:33.007Z,102014.84
2022-10-07T08:24:03.806Z,102012.25
2022-10-07T08:26:34.823Z,102005.16
2022-10-07T08:29:04.686Z,102002.25
2022-10-07T08:31:33.390Z,102001.94
2022-10-07T08:34:03.013Z,101989.22
2022-10-07T08:36:33.108Z,101981.22
2022-10-07T08:39:01.128Z,101989.16
2022-10-07T08:41:33.051Z,101983.00
2022-10-07T08:44:20.765Z,101986.16
2022-10-07T08:47:18.146Z,101981.16
2022-10-07T08:50:09.825Z,101971.53
2022-10-07T08:52:39.219Z,101975.66
2022-10-07T08:55:24.439Z,101968.88
2022-10-07T08:58:05.523Z,101971.66
2022-10-07T09:00:50.602Z,101967.16
2022-10-07T09:03:35.950Z,101958.91
2022-10-07T09:06:13.845Z,101957.50
2022-10-07T09:08:44.969Z,101955.03
2022-10-07T09:11:20.035Z,101950.19
2022-10-07T09:13:54.433Z,101959.00
2022-10-07T09:16:32.366Z,101945.19
2022-10-07T09:19:02.959Z,101939.00
2022-10-07T09:21:42.334Z,101935.41
2022-10-07T09:24:24.719Z,101940.66
2022-10-07T09:26:56.758Z,101940.47
2022-10-07T09:29:26.811Z,101924.78
2022-10-07T09:31:54.001Z,101927.75
2022-10-07T09:34:29.758Z,101917.47
2022-10-07T09:37:11.585Z,101923.56
2022-10-07T09:39:38.820Z,101921.31
2022-10-07T09:42:30.894Z,101919.50
2022-10-07T09:45:02.367Z,101917.63
2022-10-07T09:47:36.872Z,101919.00
2022-10-07T09:50:04.118Z,101911.72
2022-10-07T09:52:32.373Z,101917.25
2022-10-07T09:55:28.682Z,101918.97
2022-10-07T09:58:04.023Z,101913.78
2022-10-07T10:00:30.777Z,101904.78
2022-10-07T10:03:07.601Z,101909.72
2022-10-07T10:06:02.543Z,101902.34
2022-10-07T10:08:34.585Z,101902.94
2022-10-07T10:11:04.444Z,101904.81
2022-10-07T10:13:38.334Z,101893.06
2022-10-07T10:16:34.415Z,101889.78
2022-10-07T10:19:03.789Z,101893.09
2022-10-07T10:21:39.605Z,101898.56
2022-10-07T10:24:11.899Z,101881.31
2022-10-07T10:27:04.558Z,101879.09
2022-10-07T10:29:57.269Z,101885.41
2022-10-07T10:33:09.689Z,101881.31
2022-10-07T10:35:53.719Z,101868.38
2022-10-07T10:39:01.322Z,101866.75
2022-10-07T10:41:39.090Z,101855.22
2022-10-07T10:44:27.192Z,101847.25
2022-10-07T10:47:08.713Z,101841.78
2022-10-07T10:49:44.212Z,101845.63
2022-10-07T10:52:45.229Z,101844.81
2022-10-07T10:55:25.781Z,101829.69
2022-10-07T10:58:30.151Z,101839.00
2022-10-07T11:01:21.074Z,101829.06
2022-10-07T11:03:59.590Z,101832.66
2022-10-07T11:06:28.530Z,101818.59
2022-10-07T11:08:58.931Z,101824.03
2022-10-07T11:11:28.174Z,101806.44
2022-10-07T11:14:01.929Z,101805.84
2022-10-07T11:16:43.579Z,101805.81
2022-10-07T11:19:28.853Z,101801.97
2022-10-07T11:21:59.903Z,101799.44
2022-10-07T11:24:54.798Z,101787.13
2022-10-07T11:27:31.299Z,101797.78
2022-10-07T11:30:17.814Z,101776.56
2022-10-07T11:33:04.793Z,101771.63
2022-10-07T11:35:31.364Z,101767.81
2022-10-07T11:38:10.223Z,101760.38
2022-10-07T11:40:42.933Z,101753.38
2022-10-07T11:43:19.091Z,101742.84
2022-10-07T11:45:54.208Z,101755.69
2022-10-07T11:48:44.925Z,101739.22
2022-10-07T11:51:25.136Z,101746.25
2022-10-07T11:53:56.238Z,101742.84
2022-10-07T11:56:25.996Z,101737.19
2022-10-07T11:59:04.661Z,101735.69
2022-10-07T12:01:35.469Z,101720.03
2022-10-07T12:04:22.964Z,101721.09
2022-10-07T12:07:27.097Z,101710.69
2022-10-07T12:10:05.888Z,101710.41
2022-10-07T12:12:46.679Z,101692.28
2022-10-07T12:15:42.582Z,101693.00
2022-10-07T12:18:13.262Z,101696.31
2022-10-07T12:20:52.493Z,101678.16
2022-10-07T12:23:18.955Z,101671.91
2022-10-07T12:25:55.911Z,101685.19
2022-10-07T12:28:55.669Z,101671.59
2022-10-07T12:31:22.793Z,101665.09
2022-10-07T12:34:04.381Z,101674.66
2022-10-07T12:36:32.066Z,101667.63
2022-10-07T12:39:02.505Z,101662.19
2022-10-07T12:41:35.348Z,101651.03
2022-10-07T12:44:36.234Z,101652.53
2022-10-07T12:47:17.577Z,101658.22
2022-10-07T12:49:50.931Z,101647.38
2022-10-07T12:52:27.424Z,101638.81
2022-10-07T12:54:58.430Z,101631.34
2022-10-07T12:57:32.916Z,101626.72
2022-10-07T13:00:04.063Z,101635.31
2022-10-07T13:02:58.868Z,101621.56
2022-10-07T13:06:05.349Z,101619.56
2022-10-07T13:09:02.982Z,101621.19
2022-10-07T13:12:14.389Z,101611.38
2022-10-07T13:15:05.457Z,101610.47
2022-10-07T13:17:46.083Z,101605.66
2022-10-07T13:20:12.556Z,101597.94
2022-10-07T13:22:46.573Z,101597.69
2022-10-07T13:25:14.577Z,101592.13
2022-10-07T13:27:48.288Z,101587.31
2022-10-07T13:30:38.670Z,101588.38
2022-10-07T13:33:28.873Z,101581.81
2022-10-07T13:36:19.047Z,101585.25
2022-10-07T13:38:47.161Z,101583.69
2022-10-07T13:41:24.705Z,101580.84
2022-10-07T13:43:55.036Z,101566.09
2022-10-07T13:46:25.781Z,101562.78
2022-10-07T13:48:56.212Z,101552.69
2022-10-07T13:51:36.556Z,101556.53
2022-10-07T13:54:15.878Z,101557.06
2022-10-07T13:56:42.905Z,101544.94
2022-10-07T13:59:18.527Z,101544.09
2022-10-07T14:01:48.586Z,101543.94
2022-10-07T14:04:15.009Z,101543.84
2022-10-07T14:06:46.596Z,101540.75
2022-10-07T14:09:17.750Z,101536.16
2022-10-07T14:11:46.687Z,101525.78
2022-10-07T14:14:20.295Z,101525.47
2022-10-07T14:16:53.424Z,101519.22
2022-10-07T14:19:21.214Z,101509.06
2022-10-07T14:21:48.189Z,101508.19
2022-10-07T14:24:20.234Z,101500.38
2022-10-07T14:26:46.950Z,101504.16
2022-10-07T14:29:37.497Z,101494.38
2022-10-07T14:32:29.920Z,101495.97
2022-10-07T14:35:15.037Z,101492.19
2022-10-07T14:37:41.519Z,101486.59
2022-10-07T14:40:23.225Z,101481.09
2022-10-07T14:42:54.721Z,101480.06
2022-10-07T14:45:24.690Z,101481.31
2022-10-07T14:47:51.221Z,101470.84
2022-10-07T14:50:19.526Z,101470.91
2022-10-07T14:52:51.664Z,101472.94
2022-10-07T14:55:26.357Z,101460.63
2022-10-07T14:57:52.960Z,101465.34
2022-10-07T15:00:25.305Z,101469.22
2022-10-07T15:02:53.114Z,101465.00
2022-10-07T15:05:19.636Z,101460.94
2022-10-07T15:07:46.486Z,101460.63
2022-10-07T15:10:19.331Z,101455.06
2022-10-07T15:12:46.462Z,101449.88
2022-10-07T15:15:14.689Z,101440.28
2022-10-07T15:17:42.092Z,101445.72
2022-10-07T15:20:11.187Z,101450.03
2022-10-07T15:22:38.129Z,101437.59
2022-10-07T15:25:09.543Z,101442.22
2022-10-07T15:27:36.457Z,101432.84
2022-10-07T15:30:07.430Z,101430.63
2022-10-07T15:32:34.526Z,101437.88
2022-10-07T15:35:01.566Z,101435.84
2022-10-07T15:37:28.299Z,101425.38
2022-10-07T15:39:55.182Z,101430.66
2022-10-07T15:42:24.890Z,101423.38
2022-10-07T15:44:52.368Z,101424.78
2022-10-07T15:47:19.122Z,101423.66
2022-10-07T15:49:45.629Z,101429.53
2022-10-07T15:52:12.267Z,101418.34
2022-10-07T15:54:39.506Z,101421.44
2022-10-07T15:57:08.268Z,101408.38
2022-10-07T15:59:35.639Z,101411.19
2022-10-07T16:02:05.725Z,101408.03
2022-10-07T16:04:32.973Z,101398.56
2022-10-07T16:06:59.814Z,101400.81
2022-10-07T16:09:27.092Z,101399.31
2022-10-07T16:11:53.984Z,101397.00
2022-10-07T16:14:20.405Z,101398.69
2022-10-07T16:16:46.933Z,101395.53
2022-10-07T16:19:13.818Z,101392.31
2022-10-07T16:21:42.469Z,101388.28
2022-10-07T16:24:12.905Z,101393.03
2022-10-07T16:26:39.879Z,101388.75
2022-10-07T16:29:30.463Z,101388.78
2022-10-07T16:31:59.085Z,101383.09
2022-10-07T16:34:27.986Z,101381.28
2022-10-07T16:36:55.679Z,101370.94
2022-10-07T16:39:22.517Z,101372.38
2022-10-07T16:41:52.044Z,101377.34
2022-10-07T16:44:19.919Z,101376.84
2022-10-07T16:46:46.632Z,101375.84
2022-10-07T16:49:18.094Z,101377.81
2022-10-07T16:51:45.850Z,101372.41
2022-10-07T16:54:17.663Z,101364.50
2022-10-07T16:56:47.032Z,101362.34
2022-10-07T16:59:21.897Z,101365.13
2022-10-07T17:01:55.361Z,101367.91
2022-10-07T17:04:22.465Z,101375.63
2022-10-07T17:06:49.235Z,101375.13
2022-10-07T17:09:17.328Z,101378.94
2022-10-07T17:11:44.073Z,101382.78
2022-10-07T17:14:18.943Z,101369.66
2022-10-07T17:16:51.079Z,101373.25
2022-10-07T17:19:19.784Z,101373.28
2022-10-07T17:21:47.853Z,101373.84
2022-10-07T17:24:15.567Z,101370.25
2022-10-07T17:26:42.692Z,101364.81
2022-10-07T17:29:12.009Z,101373.56
2022-10-07T17:31:41.626Z,101371.97
2022-10-07T17:34:08.990Z,101373.59
2022-10-07T17:36:35.682Z,101365.44
2022-10-07T17:39:02.453Z,101357.25
2022-10-07T17:41:34.618Z,101364.38
2022-10-07T17:44:05.957Z,101366.31
2022-10-07T17:46:33.378Z,101364.69
2022-10-07T17:49:02.248Z,101365.50
2022-10-07T17:51:31.159Z,101369.06
2022-10-07T17:54:02.460Z,101367.16
2022-10-07T17:56:31.875Z,101372.09
2022-10-07T17:58:59.115Z,101376.44
2022-10-07T18:01:33.899Z,101373.16
2022-10-07T18:04:09.858Z,101368.25
2022-10-07T18:06:38.464Z,101367.72
2022-10-07T18:09:06.786Z,101372.06
2022-10-07T18:11:54.777Z,101366.59
2022-10-07T18:14:40.026Z,101367.44
2022-10-07T18:17:08.722Z,101371.50
2022-10-07T18:19:35.574Z,101372.03
2022-10-07T18:22:04.569Z,101363.88
2022-10-07T18:24:31.153Z,101367.97
2022-10-07T18:26:59.774Z,101363.88
2022-10-07T18:29:32.061Z,101360.88
2022-10-07T18:31:59.091Z,101351.31
2022-10-07T18:34:25.988Z,101353.44
2022-10-07T18:36:56.245Z,101346.06
2022-10-07T18:39:27.910Z,101345.78
2022-10-07T18:41:54.886Z,101349.03
2022-10-07T18:44:21.750Z,101345.22
2022-10-07T18:46:48.588Z,101333.47
2022-10-07T18:49:15.064Z,101332.91
2022-10-07T18:51:41.619Z,101332.91
2022-10-07T18:54:09.792Z,101333.69
2022-10-07T18:56:40.826Z,101321.72
2022-10-07T18:59:09.915Z,101322.50
2022-10-07T19:01:37.718Z,101325.72
2022-10-07T19:04:05.690Z,101317.81
2022-10-07T19:06:35.320Z,101324.06
2022-10-07T19:09:06.499Z,101316.16
2022-10-07T19:11:33.579Z,101310.69
2022-10-07T19:14:01.216Z,101315.03
2022-10-07T19:16:50.916Z,101315.56
2022-10-07T19:19:20.561Z,101316.06
2022-10-07T19:21:49.461Z,101316.28
2022-10-07T19:24:16.507Z,101312.44
2022-10-07T19:26:46.000Z,101309.16
2022-10-07T19:29:13.823Z,101305.31
2022-10-07T19:31:43.754Z,101309.06
2022-10-07T19:34:16.001Z,101301.66
2022-10-07T19:36:46.856Z,101306.78
2022-10-07T19:39:20.191Z,101306.50
2022-10-07T19:41:48.099Z,101306.19
2022-10-07T19:44:15.177Z,101299.38
2022-10-07T19:46:41.708Z,101295.53
2022-10-07T19:49:09.405Z,101295.78
2022-10-07T19:51:37.278Z,101300.66
2022-10-07T19:54:12.920Z,101296.34
2022-10-07T19:56:40.869Z,101295.03
2022-10-07T19:59:10.209Z,101300.47
2022-10-07T20:01:41.341Z,101296.06
2022-10-07T20:04:13.303Z,101294.94
2022-10-07T20:06:40.403Z,101285.94
2022-10-07T20:09:09.193Z,101283.19
2022-10-07T20:11:36.329Z,101290.53
2022-10-07T20:14:04.739Z,101283.19
2022-10-07T20:16:31.601Z,101284.00
2022-10-07T20:19:01.623Z,101288.63
2022-10-07T20:21:29.032Z,101292.66
2022-10-07T20:23:56.554Z,101294.28
2022-10-07T20:26:26.891Z,101293.97
2022-10-07T20:28:56.060Z,101282.59
2022-10-07T20:31:24.867Z,101286.38
2022-10-07T20:33:53.538Z,101276.88
2022-10-07T20:36:22.360Z,101275.50
2022-10-07T20:39:15.921Z,101272.25
2022-10-07T20:42:06.366Z,101271.91
2022-10-07T20:44:33.232Z,101261.22
2022-10-07T20:46:59.881Z,101267.09
2022-10-07T20:49:28.609Z,101263.50
2022-10-07T20:52:03.530Z,101261.56
2022-10-07T20:54:32.599Z,101262.34
2022-10-07T20:56:59.494Z,101256.88
2022-10-07T20:59:27.854Z,101261.16
2022-10-07T21:01:54.785Z,101256.50
2022-10-07T21:04:22.183Z,101260.28
2022-10-07T21:06:51.220Z,101262.97
2022-10-07T21:09:19.199Z,101256.69
2022-10-07T21:11:49.725Z,101256.13
2022-10-07T21:14:19.722Z,101256.38
2022-10-07T21:16:47.636Z,101252.56
2022-10-07T21:19:15.301Z,101254.13
2022-10-07T21:21:41.899Z,101259.00
2022-10-07T21:24:08.688Z,101246.47
2022-10-07T21:26:36.426Z,101251.66
2022-10-07T21:29:05.006Z,101250.34
2022-10-07T21:31:31.555Z,101239.50
2022-10-07T21:34:01.917Z,101237.34
2022-10-07T21:36:28.536Z,101238.97
2022-10-07T21:38:58.552Z,101235.44
2022-10-07T21:41:34.418Z,101231.91
2022-10-07T21:44:03.174Z,101225.38
2022-10-07T21:46:30.773Z,101226.94
2022-10-07T21:48:57.750Z,101218.78
2022-10-07T21:51:27.044Z,101215.81
2022-10-07T21:53:55.298Z,101221.50
2022-10-07T21:56:21.729Z,101212.00
2022-10-07T21:58:49.490Z,101209.28
2022-10-07T22:01:17.832Z,101198.13
2022-10-07T22:03:45.187Z,101205.97
2022-10-07T22:06:14.827Z,101195.66
2022-10-07T22:08:44.002Z,101192.91
2022-10-07T22:11:17.243Z,101187.47
2022-10-07T22:13:51.609Z,101192.75
2022-10-07T22:16:19.086Z,101188.94
2022-10-07T22:18:51.027Z,101182.34
2022-10-07T22:21:26.778Z,101177.97
2022-10-07T22:23:58.210Z,101185.78
2022-10-07T22:26:27.922Z,101183.03
2022-10-07T22:28:54.945Z,101183.84
2022-10-07T22:31:22.751Z,101175.16
2022-10-07T22:33:54.719Z,101169.38
2022-10-07T22:36:22.106Z,101172.09
2022-10-07T22:38:48.549Z,101167.00
2022-10-07T22:41:16.582Z,101167.88
2022-10-07T22:43:44.735Z,101167.13
2022-10-07T22:46:13.501Z,101166.38
2022-10-07T22:48:43.134Z,101161.00
2022-10-07T22:51:11.884Z,101160.47
2022-10-07T22:53:41.002Z,101159.19
2022-10-07T22:56:11.274Z,101163.09
2022-10-07T22:58:39.962Z,101156.88
2022-10-07T23:01:14.325Z,101157.78
2022-10-07T23:03:43.969Z,101153.16
2022-10-07T23:06:12.737Z,101149.69
2022-10-07T23:08:39.776Z,101145.88
2022-10-07T23:11:07.523Z,101146.97
2022-10-07T23:13:36.380Z,101144.53
2022-10-07T23:16:12.034Z,101146.75
2022-10-07T23:18:42.533Z,101148.94
2022-10-07T23:21:14.366Z,101144.84
2022-10-07T23:23:43.400Z,101144.84
2022-10-07T23:26:13.323Z,101133.69
2022-10-07T23:28:40.498Z,101131.53
2022-10-07T23:31:12.074Z,101134.50
2022-10-07T23:33:38.867Z,101141.56
2022-10-07T23:36:08.965Z,101132.03
2022-10-07T23:38:38.909Z,101136.66
2022-10-07T23:41:07.181Z,101135.28
2022-10-07T23:43:34.473Z,101127.97
2022-10-07T23:46:02.257Z,101124.69
2022-10-07T23:48:28.967Z,101125.50
2022-10-07T23:50:55.439Z,101112.19
2022-10-07T23:53:22.580Z,101127.41
2022-10-07T23:55:51.610Z,101118.94
2022-10-07T23:58:20.357Z,101111.09
